createdAt,value
2018-09-10T00:00:11.320Z,0
2018-09-10T00:01:11.325Z,0
2018-09-10T00:02:11.046Z,0
2018-09-10T00:03:11.293Z,0
2018-09-10T00:04:11.280Z,0
2018-09-10T00:05:11.275Z,0
2018-09-10T00:06:11.267Z,0
2018-09-10T00:07:11.003Z,0
2018-09-10T00:08:10.991Z,0
2018-09-10T00:09:10.980Z,0
2018-09-10T00:10:10.713Z,0
2018-09-10T00:11:11.222Z,0
2018-09-10T00:12:11.208Z,0
2018-09-10T00:13:11.200Z,0
2018-09-10T00:14:10.936Z,0
2018-09-10T00:15:10.937Z,0
2018-09-10T00:16:11.178Z,0
2018-09-10T00:17:10.907Z,0
2018-09-10T00:18:10.903Z,0
2018-09-10T00:19:10.896Z,0
2018-09-10T00:20:11.139Z,0
2018-09-10T00:21:10.871Z,0
2018-09-10T00:22:11.118Z,0
2018-09-10T00:23:10.864Z,0
2018-09-10T00:24:10.589Z,0
2018-09-10T00:25:10.592Z,0
2018-09-10T00:26:11.079Z,0
2018-09-10T00:27:10.811Z,0
2018-09-10T00:28:11.060Z,0
2018-09-10T00:29:10.795Z,0
2018-09-10T00:30:11.038Z,0
2018-09-10T00:31:11.032Z,0
2018-09-10T00:32:11.025Z,0
2018-09-10T00:33:11.021Z,0
2018-09-10T00:34:10.747Z,0
2018-09-10T00:35:10.736Z,0
2018-09-10T00:36:10.729Z,0
2018-09-10T00:37:10.974Z,0
2018-09-10T00:38:10.962Z,0
2018-09-10T00:39:10.696Z,0
2018-09-10T00:40:10.954Z,0
2018-09-10T00:41:10.681Z,0
2018-09-10T00:42:10.673Z,0
2018-09-10T00:43:10.917Z,0
2018-09-10T00:44:10.655Z,0
2018-09-10T00:45:10.700Z,0
2018-09-10T00:46:10.633Z,0
2018-09-10T00:47:10.879Z,0
2018-09-10T00:48:10.880Z,0
2018-09-10T00:49:10.861Z,0
2018-09-10T00:50:10.601Z,0
2018-09-10T00:51:10.586Z,0
2018-09-10T00:52:10.833Z,0
2018-09-10T00:53:10.840Z,0
2018-09-10T00:54:10.044Z,0
2018-09-10T00:55:10.802Z,0
2018-09-10T00:56:10.796Z,0
2018-09-10T00:57:10.523Z,0
2018-09-10T00:58:10.774Z,0
2018-09-10T00:59:10.254Z,0
2018-09-10T01:00:10.503Z,0
2018-09-10T01:01:10.238Z,0
2018-09-10T01:02:10.483Z,0
2018-09-10T01:03:10.469Z,0
2018-09-10T01:04:10.474Z,0
2018-09-10T01:05:10.724Z,0
2018-09-10T01:06:10.194Z,0
2018-09-10T01:07:10.431Z,0
2018-09-10T01:08:10.687Z,0
2018-09-10T01:09:10.677Z,0
2018-09-10T01:10:10.147Z,0
2018-09-10T01:11:10.397Z,0
2018-09-10T01:12:10.390Z,0
2018-09-10T01:13:10.370Z,0
2018-09-10T01:14:10.361Z,0
2018-09-10T01:15:10.101Z,0
2018-09-10T01:16:10.347Z,0
2018-09-10T01:17:10.365Z,0
2018-09-10T01:18:10.344Z,0
2018-09-10T01:19:10.321Z,0
2018-09-10T01:20:10.312Z,0
2018-09-10T01:21:10.300Z,0
2018-09-10T01:22:10.551Z,0
2018-09-10T01:23:10.545Z,0
2018-09-10T01:24:10.552Z,0
2018-09-10T01:25:09.751Z,0
2018-09-10T01:26:10.513Z,0
2018-09-10T01:27:10.245Z,0
2018-09-10T01:28:10.237Z,0
2018-09-10T01:29:09.963Z,0
2018-09-10T01:30:10.469Z,0
2018-09-10T01:31:10.458Z,0
2018-09-10T01:32:10.467Z,0
2018-09-10T01:33:09.929Z,0
2018-09-10T01:34:10.432Z,0
2018-09-10T01:35:10.432Z,0
2018-09-10T01:36:10.421Z,0
2018-09-10T01:37:10.399Z,0
2018-09-10T01:38:10.138Z,0
2018-09-10T01:39:10.387Z,0
2018-09-10T01:40:10.378Z,0
2018-09-10T01:41:10.363Z,0
2018-09-10T01:42:10.356Z,0
2018-09-10T01:43:10.095Z,0
2018-09-10T01:44:10.080Z,0
2018-09-10T01:45:10.068Z,0
2018-09-10T01:46:10.318Z,0
2018-09-10T01:47:10.308Z,0
2018-09-10T01:48:10.300Z,0
2018-09-10T01:49:10.028Z,0
2018-09-10T01:50:10.286Z,0
2018-09-10T01:51:10.267Z,0
2018-09-10T01:52:10.011Z,0
2018-09-10T01:53:10.251Z,0
2018-09-10T01:54:09.986Z,0
2018-09-10T01:55:09.978Z,0
2018-09-10T01:56:10.226Z,0
2018-09-10T01:57:10.212Z,0
2018-09-10T01:58:09.950Z,0
2018-09-10T01:59:10.200Z,0
2018-09-10T02:00:10.182Z,0
2018-09-10T02:01:10.172Z,0
2018-09-10T02:02:10.168Z,0
2018-09-10T02:03:09.894Z,0
2018-09-10T02:04:09.884Z,0
2018-09-10T02:05:09.880Z,0
2018-09-10T02:06:09.619Z,0
2018-09-10T02:07:10.112Z,0
2018-09-10T02:08:10.105Z,0
2018-09-10T02:09:09.846Z,0
2018-09-10T02:10:09.584Z,0
2018-09-10T02:11:09.823Z,0
2018-09-10T02:12:09.805Z,0
2018-09-10T02:13:09.807Z,0
2018-09-10T02:14:09.533Z,0
2018-09-10T02:15:10.037Z,0
2018-09-10T02:16:09.775Z,0
2018-09-10T02:17:10.046Z,0
2018-09-10T02:18:09.495Z,0
2018-09-10T02:19:09.229Z,0
2018-09-10T02:20:10.016Z,0
2018-09-10T02:21:09.718Z,0
2018-09-10T02:22:09.965Z,0
2018-09-10T02:23:09.698Z,0
2018-09-10T02:24:09.699Z,0
2018-09-10T02:25:09.684Z,0
2018-09-10T02:26:09.937Z,0
2018-09-10T02:27:09.918Z,0
2018-09-10T02:28:09.916Z,0
2018-09-10T02:29:10.056Z,0
2018-09-10T02:30:09.423Z,0
2018-09-10T02:31:09.885Z,0
2018-09-10T02:32:09.877Z,0
2018-09-10T02:33:09.867Z,0
2018-09-10T02:34:09.603Z,0
2018-09-10T02:35:09.849Z,0
2018-09-10T02:36:09.575Z,0
2018-09-10T02:37:09.570Z,0
2018-09-10T02:38:09.816Z,0
2018-09-10T02:39:09.548Z,0
2018-09-10T02:40:09.282Z,0
2018-09-10T02:41:09.781Z,0
2018-09-10T02:42:09.255Z,0
2018-09-10T02:43:09.507Z,0
2018-09-10T02:44:09.752Z,0
2018-09-10T02:45:09.230Z,0
2018-09-10T02:46:09.476Z,0
2018-09-10T02:47:09.725Z,0
2018-09-10T02:48:09.461Z,0
2018-09-10T02:49:09.451Z,0
2018-09-10T02:50:09.438Z,0
2018-09-10T02:51:09.426Z,0
2018-09-10T02:52:09.699Z,0
2018-09-10T02:53:09.406Z,0
2018-09-10T02:54:09.654Z,0
2018-09-10T02:55:09.274Z,0
2018-09-10T02:56:09.117Z,0
2018-09-10T02:57:09.372Z,0
2018-09-10T02:58:09.617Z,0
2018-09-10T02:59:09.350Z,0
2018-09-10T03:00:09.080Z,0
2018-09-10T03:01:09.595Z,0
2018-09-10T03:02:09.316Z,0
2018-09-10T03:03:09.054Z,0
2018-09-10T03:04:09.039Z,0
2018-09-10T03:05:09.039Z,0
2018-09-10T03:06:08.768Z,0
2018-09-10T03:07:09.012Z,0
2018-09-10T03:08:09.518Z,0
2018-09-10T03:09:09.501Z,0
2018-09-10T03:10:09.245Z,0
2018-09-10T03:11:09.223Z,0
2018-09-10T03:12:09.216Z,0
2018-09-10T03:13:09.458Z,0
2018-09-10T03:14:09.202Z,0
2018-09-10T03:15:09.184Z,0
2018-09-10T03:16:09.174Z,0
2018-09-10T03:17:09.166Z,0
2018-09-10T03:18:09.756Z,0
2018-09-10T03:19:08.893Z,0
2018-09-10T03:20:09.133Z,0
2018-09-10T03:21:08.865Z,0
2018-09-10T03:22:08.859Z,0
2018-09-10T03:23:09.375Z,0
2018-09-10T03:24:09.283Z,0
2018-09-10T03:25:09.088Z,0
2018-09-10T03:26:09.329Z,0
2018-09-10T03:27:08.810Z,0
2018-09-10T03:28:09.313Z,0
2018-09-10T03:29:09.301Z,0
2018-09-10T03:30:08.778Z,0
2018-09-10T03:31:09.030Z,0
2018-09-10T03:32:09.024Z,0
2018-09-10T03:33:08.760Z,0
2018-09-10T03:34:09.263Z,0
2018-09-10T03:35:08.982Z,0
2018-09-10T03:36:08.719Z,0
2018-09-10T03:37:08.971Z,0
2018-09-10T03:38:08.962Z,0
2018-09-10T03:39:08.692Z,0
2018-09-10T03:40:08.684Z,0
2018-09-10T03:41:08.978Z,0
2018-09-10T03:42:08.927Z,0
2018-09-10T03:43:08.650Z,0
2018-09-10T03:44:08.893Z,0
2018-09-10T03:45:08.892Z,0
2018-09-10T03:46:08.882Z,0
2018-09-10T03:47:08.879Z,0
2018-09-10T03:48:08.855Z,0
2018-09-10T03:49:08.593Z,0
2018-09-10T03:50:08.591Z,0
2018-09-10T03:51:08.826Z,0
2018-09-10T03:52:08.817Z,0
2018-09-10T03:53:09.075Z,0
2018-09-10T03:54:08.798Z,0
2018-09-10T03:55:08.788Z,0
2018-09-10T03:56:09.034Z,0
2018-09-10T03:57:09.081Z,0
2018-09-10T03:58:08.759Z,0
2018-09-10T03:59:08.748Z,0
2018-09-10T04:00:08.740Z,0
2018-09-10T04:01:08.726Z,0
2018-09-10T04:02:08.716Z,0
2018-09-10T04:03:08.457Z,0
2018-09-10T04:04:08.956Z,0
2018-09-10T04:05:08.688Z,0
2018-09-10T04:06:08.939Z,0
2018-09-10T04:07:08.933Z,4
2018-09-10T04:08:08.657Z,4
2018-09-10T04:09:08.650Z,0
2018-09-10T04:10:08.656Z,4
2018-09-10T04:11:08.626Z,0
2018-09-10T04:12:08.878Z,4
2018-09-10T04:13:08.614Z,4
2018-09-10T04:14:08.597Z,4
2018-09-10T04:15:08.590Z,8
2018-09-10T04:16:08.579Z,8
2018-09-10T04:17:08.708Z,12
2018-09-10T04:18:08.303Z,12
2018-09-10T04:19:08.318Z,16
2018-09-10T04:20:08.278Z,20
2018-09-10T04:21:08.791Z,20
2018-09-10T04:22:08.518Z,28
2018-09-10T04:23:08.247Z,32
2018-09-10T04:24:08.502Z,36
2018-09-10T04:25:08.230Z,44
2018-09-10T04:26:08.876Z,48
2018-09-10T04:27:08.463Z,56
2018-09-10T04:28:08.200Z,64
2018-09-10T04:29:08.186Z,76
2018-09-10T04:30:08.697Z,84
2018-09-10T04:31:08.696Z,96
2018-09-10T04:32:08.155Z,104
2018-09-10T04:33:08.407Z,120
2018-09-10T04:34:08.399Z,132
2018-09-10T04:35:08.391Z,148
2018-09-10T04:36:08.982Z,164
2018-09-10T04:37:08.369Z,180
2018-09-10T04:38:08.402Z,200
2018-09-10T04:39:08.350Z,216
2018-09-10T04:40:08.334Z,236
2018-09-10T04:41:08.328Z,260
2018-09-10T04:42:08.466Z,280
2018-09-10T04:43:08.307Z,304
2018-09-10T04:44:08.297Z,328
2018-09-10T04:45:08.027Z,352
2018-09-10T04:46:08.573Z,380
2018-09-10T04:47:08.006Z,408
2018-09-10T04:48:08.003Z,436
2018-09-10T04:49:08.248Z,468
2018-09-10T04:50:08.244Z,492
2018-09-10T04:51:08.257Z,524
2018-09-10T04:52:08.238Z,556
2018-09-10T04:53:08.472Z,592
2018-09-10T04:54:08.191Z,628
2018-09-10T04:55:08.449Z,668
2018-09-10T04:56:07.920Z,708
2018-09-10T04:57:07.911Z,752
2018-09-10T04:58:08.540Z,800
2018-09-10T04:59:08.406Z,848
2018-09-10T05:00:08.151Z,900
2018-09-10T05:01:08.140Z,952
2018-09-10T05:02:08.122Z,1008
2018-09-10T05:03:08.366Z,1068
2018-09-10T05:04:08.098Z,1124
2018-09-10T05:05:08.091Z,1192
2018-09-10T05:06:08.080Z,1252
2018-09-10T05:07:08.335Z,1320
2018-09-10T05:08:08.323Z,1384
2018-09-10T05:09:08.313Z,1452
2018-09-10T05:10:08.738Z,1520
2018-09-10T05:11:08.045Z,1580
2018-09-10T05:12:08.017Z,1636
2018-09-10T05:13:07.759Z,1692
2018-09-10T05:14:07.748Z,1748
2018-09-10T05:15:07.750Z,1796
2018-09-10T05:16:07.983Z,1832
2018-09-10T05:17:07.979Z,1872
2018-09-10T05:18:08.221Z,1912
2018-09-10T05:19:07.961Z,1956
2018-09-10T05:20:08.205Z,1992
2018-09-10T05:21:07.934Z,2028
2018-09-10T05:22:08.421Z,2064
2018-09-10T05:23:07.920Z,2092
2018-09-10T05:24:07.904Z,2120
2018-09-10T05:25:08.158Z,2156
2018-09-10T05:26:08.147Z,2188
2018-09-10T05:27:08.139Z,2228
2018-09-10T05:28:08.052Z,2264
2018-09-10T05:29:07.608Z,2304
2018-09-10T05:30:07.853Z,2348
2018-09-10T05:31:07.846Z,2388
2018-09-10T05:32:07.834Z,2432
2018-09-10T05:33:07.827Z,2480
2018-09-10T05:34:08.081Z,2520
2018-09-10T05:35:08.056Z,2556
2018-09-10T05:36:08.049Z,2600
2018-09-10T05:37:08.046Z,2656
2018-09-10T05:38:08.033Z,2708
2018-09-10T05:39:08.024Z,2760
2018-09-10T05:40:07.757Z,2808
2018-09-10T05:41:08.071Z,2868
2018-09-10T05:42:08.005Z,2952
2018-09-10T05:43:07.998Z,3060
2018-09-10T05:44:07.462Z,3200
2018-09-10T05:45:07.972Z,3336
2018-09-10T05:46:07.705Z,3428
2018-09-10T05:47:07.953Z,3500
2018-09-10T05:48:07.945Z,3568
2018-09-10T05:49:07.676Z,3632
2018-09-10T05:50:07.416Z,3700
2018-09-10T05:51:07.661Z,3756
2018-09-10T05:52:07.909Z,3804
2018-09-10T05:53:08.034Z,3848
2018-09-10T05:54:07.639Z,3880
2018-09-10T05:55:07.624Z,3900
2018-09-10T05:56:07.877Z,3916
2018-09-10T05:57:07.862Z,3952
2018-09-10T05:58:07.346Z,4004
2018-09-10T05:59:07.846Z,4024
2018-09-10T06:00:07.851Z,4016
2018-09-10T06:01:07.578Z,3996
2018-09-10T06:02:07.841Z,3976
2018-09-10T06:03:07.816Z,3932
2018-09-10T06:04:07.288Z,3868
2018-09-10T06:05:07.284Z,3788
2018-09-10T06:06:07.790Z,3684
2018-09-10T06:07:07.795Z,3564
2018-09-10T06:08:07.775Z,3480
2018-09-10T06:09:07.764Z,3400
2018-09-10T06:10:07.240Z,3340
2018-09-10T06:11:07.748Z,3288
2018-09-10T06:12:07.746Z,3208
2018-09-10T06:13:07.729Z,3124
2018-09-10T06:14:06.953Z,3016
2018-09-10T06:15:06.955Z,2880
2018-09-10T06:16:07.729Z,2744
2018-09-10T06:17:07.456Z,2612
2018-09-10T06:18:07.436Z,2480
2018-09-10T06:19:07.694Z,2332
2018-09-10T06:20:07.688Z,2204
2018-09-10T06:21:07.672Z,2116
2018-09-10T06:22:07.663Z,2052
2018-09-10T06:23:07.649Z,1996
2018-09-10T06:24:07.644Z,1944
2018-09-10T06:25:07.642Z,1884
2018-09-10T06:26:07.382Z,1828
2018-09-10T06:27:07.370Z,1780
2018-09-10T06:28:07.365Z,1732
2018-09-10T06:29:07.353Z,1700
2018-09-10T06:30:07.607Z,1696
2018-09-10T06:31:07.338Z,1720
2018-09-10T06:32:07.331Z,1768
2018-09-10T06:33:07.580Z,1820
2018-09-10T06:34:07.502Z,1884
2018-09-10T06:35:07.581Z,2040
2018-09-10T06:36:07.561Z,2252
2018-09-10T06:37:07.428Z,2016
2018-09-10T06:38:07.539Z,2004
2018-09-10T06:39:07.280Z,2072
2018-09-10T06:40:07.283Z,2100
2018-09-10T06:41:07.526Z,2064
2018-09-10T06:42:07.534Z,2140
2018-09-10T06:43:07.551Z,2164
2018-09-10T06:44:07.497Z,2260
2018-09-10T06:45:07.492Z,2436
2018-09-10T06:46:07.224Z,2364
2018-09-10T06:47:07.476Z,2188
2018-09-10T06:48:06.950Z,2236
2018-09-10T06:49:07.209Z,2232
2018-09-10T06:50:07.466Z,2252
2018-09-10T06:51:07.439Z,2264
2018-09-10T06:52:07.194Z,2268
2018-09-10T06:53:07.428Z,2300
2018-09-10T06:54:07.164Z,2328
2018-09-10T06:55:07.160Z,2276
2018-09-10T06:56:07.151Z,2300
2018-09-10T06:57:07.407Z,2340
2018-09-10T06:58:07.141Z,2436
2018-09-10T06:59:06.872Z,2484
2018-09-10T07:00:06.914Z,2468
2018-09-10T07:01:07.117Z,2440
2018-09-10T07:02:07.110Z,2420
2018-09-10T07:03:07.100Z,2408
2018-09-10T07:04:07.352Z,2396
2018-09-10T07:05:07.092Z,2396
2018-09-10T07:06:07.352Z,2408
2018-09-10T07:07:07.341Z,2420
2018-09-10T07:08:07.339Z,2432
2018-09-10T07:09:07.320Z,2440
2018-09-10T07:10:06.802Z,2452
2018-09-10T07:11:07.310Z,2460
2018-09-10T07:12:07.044Z,2492
2018-09-10T07:13:07.652Z,2512
2018-09-10T07:14:07.297Z,2548
2018-09-10T07:15:07.045Z,2552
2018-09-10T07:16:07.287Z,2588
2018-09-10T07:17:07.027Z,2600
2018-09-10T07:18:07.290Z,2616
2018-09-10T07:19:07.595Z,2636
2018-09-10T07:20:07.011Z,2660
2018-09-10T07:21:07.254Z,2672
2018-09-10T07:22:06.738Z,2692
2018-09-10T07:23:06.735Z,2704
2018-09-10T07:24:07.239Z,2724
2018-09-10T07:25:06.979Z,2756
2018-09-10T07:26:07.296Z,2764
2018-09-10T07:27:07.227Z,2776
2018-09-10T07:28:06.711Z,2776
2018-09-10T07:29:06.969Z,2776
2018-09-10T07:30:07.211Z,2752
2018-09-10T07:31:07.205Z,2740
2018-09-10T07:32:06.944Z,2716
2018-09-10T07:33:07.202Z,2676
2018-09-10T07:34:07.207Z,2620
2018-09-10T07:35:07.188Z,2544
2018-09-10T07:36:07.194Z,2536
2018-09-10T07:37:06.940Z,2588
2018-09-10T07:38:07.171Z,2604
2018-09-10T07:39:07.169Z,2556
2018-09-10T07:40:06.916Z,2548
2018-09-10T07:41:06.904Z,2668
2018-09-10T07:42:06.643Z,2692
2018-09-10T07:43:06.900Z,2700
2018-09-10T07:44:07.612Z,2712
2018-09-10T07:45:06.887Z,2720
2018-09-10T07:46:07.143Z,2736
2018-09-10T07:47:07.140Z,2752
2018-09-10T07:48:07.131Z,2768
2018-09-10T07:49:07.388Z,2772
2018-09-10T07:50:06.870Z,2780
2018-09-10T07:51:06.616Z,2792
2018-09-10T07:52:06.860Z,2788
2018-09-10T07:53:07.114Z,2800
2018-09-10T07:54:07.112Z,2808
2018-09-10T07:55:07.115Z,2824
2018-09-10T07:56:06.847Z,2848
2018-09-10T07:57:06.845Z,2864
2018-09-10T07:58:06.844Z,2876
2018-09-10T07:59:07.098Z,2896
2018-09-10T08:00:06.577Z,2920
2018-09-10T08:01:07.085Z,2948
2018-09-10T08:02:06.828Z,2984
2018-09-10T08:03:06.366Z,3016
2018-09-10T08:04:06.565Z,3092
2018-09-10T08:05:06.828Z,3168
2018-09-10T08:06:06.566Z,3256
2018-09-10T08:07:07.068Z,3340
2018-09-10T08:08:06.556Z,3484
2018-09-10T08:09:06.925Z,3616
2018-09-10T08:10:06.818Z,3752
2018-09-10T08:11:06.805Z,3908
2018-09-10T08:12:06.807Z,4068
2018-09-10T08:13:06.571Z,4208
2018-09-10T08:14:07.055Z,4352
2018-09-10T08:15:06.803Z,4512
2018-09-10T08:16:06.793Z,4696
2018-09-10T08:17:06.793Z,4872
2018-09-10T08:18:06.527Z,5024
2018-09-10T08:19:06.785Z,5172
2018-09-10T08:20:06.524Z,5308
2018-09-10T08:21:07.036Z,5440
2018-09-10T08:22:06.779Z,5560
2018-09-10T08:23:06.781Z,5632
2018-09-10T08:24:06.611Z,5812
2018-09-10T08:25:06.830Z,6080
2018-09-10T08:26:06.770Z,6364
2018-09-10T08:27:06.771Z,6636
2018-09-10T08:28:07.021Z,6908
2018-09-10T08:29:06.769Z,7108
2018-09-10T08:30:07.033Z,7288
2018-09-10T08:31:06.509Z,7336
2018-09-10T08:32:06.755Z,7384
2018-09-10T08:33:06.759Z,7252
2018-09-10T08:34:06.504Z,7144
2018-09-10T08:35:07.019Z,7076
2018-09-10T08:36:06.501Z,7044
2018-09-10T08:37:06.755Z,6948
2018-09-10T08:38:07.015Z,6876
2018-09-10T08:39:06.753Z,6936
2018-09-10T08:40:07.047Z,6960
2018-09-10T08:41:06.747Z,6948
2018-09-10T08:42:07.010Z,7024
2018-09-10T08:43:07.127Z,7044
2018-09-10T08:44:06.743Z,7096
2018-09-10T08:45:07.010Z,7120
2018-09-10T08:46:07.005Z,7236
2018-09-10T08:47:06.745Z,7296
2018-09-10T08:48:06.749Z,7356
2018-09-10T08:49:07.016Z,7444
2018-09-10T08:50:06.745Z,7592
2018-09-10T08:51:06.487Z,7764
2018-09-10T08:52:06.748Z,7748
2018-09-10T08:53:06.999Z,8012
2018-09-10T08:54:07.621Z,8260
2018-09-10T08:55:07.048Z,8456
2018-09-10T08:56:06.456Z,8672
2018-09-10T08:57:06.744Z,8820
2018-09-10T08:58:06.996Z,8968
2018-09-10T08:59:06.737Z,9096
2018-09-10T09:00:06.846Z,9224
2018-09-10T09:01:06.740Z,9340
2018-09-10T09:02:07.481Z,9428
2018-09-10T09:03:06.739Z,9516
2018-09-10T09:04:06.745Z,9604
2018-09-10T09:05:06.739Z,9764
2018-09-10T09:06:06.685Z,9900
2018-09-10T09:07:06.737Z,10048
2018-09-10T09:08:07.480Z,10100
2018-09-10T09:09:06.482Z,10136
2018-09-10T09:10:06.738Z,10156
2018-09-10T09:11:06.739Z,10192
2018-09-10T09:12:06.989Z,10204
2018-09-10T09:13:06.740Z,10200
2018-09-10T09:14:06.740Z,10092
2018-09-10T09:15:06.988Z,10012
2018-09-10T09:16:06.999Z,10024
2018-09-10T09:17:07.002Z,10108
2018-09-10T09:18:06.481Z,10056
2018-09-10T09:19:06.483Z,10004
2018-09-10T09:20:06.745Z,10048
2018-09-10T09:21:06.736Z,10116
2018-09-10T09:22:06.736Z,10156
2018-09-10T09:23:07.222Z,10048
2018-09-10T09:24:06.754Z,10044
2018-09-10T09:25:06.992Z,10120
2018-09-10T09:26:06.746Z,10128
2018-09-10T09:27:06.998Z,10252
2018-09-10T09:28:06.513Z,10288
2018-09-10T09:29:06.739Z,10304
2018-09-10T09:30:07.173Z,10376
2018-09-10T09:31:06.739Z,10500
2018-09-10T09:32:06.999Z,10576
2018-09-10T09:33:06.487Z,10660
2018-09-10T09:34:06.488Z,10668
2018-09-10T09:35:06.491Z,10780
2018-09-10T09:36:07.129Z,10720
2018-09-10T09:37:07.004Z,10608
2018-09-10T09:38:06.748Z,10640
2018-09-10T09:39:07.005Z,10740
2018-09-10T09:40:06.749Z,10804
2018-09-10T09:41:06.488Z,10932
2018-09-10T09:42:06.747Z,11076
2018-09-10T09:43:06.772Z,11272
2018-09-10T09:44:07.009Z,11404
2018-09-10T09:45:07.015Z,11488
2018-09-10T09:46:06.494Z,11528
2018-09-10T09:47:06.496Z,11556
2018-09-10T09:48:07.008Z,11568
2018-09-10T09:49:06.243Z,11616
2018-09-10T09:50:06.781Z,11648
2018-09-10T09:51:07.191Z,11612
2018-09-10T09:52:06.764Z,11620
2018-09-10T09:53:07.019Z,11544
2018-09-10T09:54:06.503Z,11504
2018-09-10T09:55:06.809Z,11596
2018-09-10T09:56:06.764Z,11628
2018-09-10T09:57:06.763Z,11740
2018-09-10T09:58:06.769Z,11804
2018-09-10T09:59:06.503Z,11680
2018-09-10T10:00:06.509Z,11624
2018-09-10T10:01:06.770Z,11564
2018-09-10T10:02:06.771Z,11508
2018-09-10T10:03:06.769Z,11432
2018-09-10T10:04:07.263Z,11216
2018-09-10T10:05:06.514Z,11108
2018-09-10T10:06:07.035Z,10908
2018-09-10T10:07:06.516Z,10748
2018-09-10T10:08:06.776Z,10628
2018-09-10T10:09:06.778Z,10552
2018-09-10T10:10:07.186Z,10464
2018-09-10T10:11:06.857Z,10384
2018-09-10T10:12:07.023Z,10276
2018-09-10T10:13:06.526Z,10080
2018-09-10T10:14:07.044Z,9828
2018-09-10T10:15:06.784Z,9560
2018-09-10T10:16:06.786Z,9296
2018-09-10T10:17:06.784Z,8968
2018-09-10T10:18:06.789Z,8784
2018-09-10T10:19:06.783Z,8392
2018-09-10T10:20:07.047Z,7960
2018-09-10T10:21:06.789Z,7604
2018-09-10T10:22:07.126Z,7168
2018-09-10T10:23:06.534Z,6952
2018-09-10T10:24:07.044Z,6772
2018-09-10T10:25:06.809Z,6804
2018-09-10T10:26:06.791Z,6848
2018-09-10T10:27:06.794Z,6656
2018-09-10T10:28:06.907Z,6776
2018-09-10T10:29:06.796Z,6804
2018-09-10T10:30:06.542Z,6812
2018-09-10T10:31:07.051Z,6900
2018-09-10T10:32:07.059Z,6972
2018-09-10T10:33:06.282Z,7128
2018-09-10T10:34:07.061Z,7252
2018-09-10T10:35:07.057Z,7320
2018-09-10T10:36:06.544Z,7356
2018-09-10T10:37:07.056Z,7432
2018-09-10T10:38:06.810Z,7416
2018-09-10T10:39:07.214Z,7500
2018-09-10T10:40:06.620Z,7640
2018-09-10T10:41:06.819Z,7792
2018-09-10T10:42:07.093Z,8064
2018-09-10T10:43:06.816Z,8296
2018-09-10T10:44:07.081Z,8572
2018-09-10T10:45:07.073Z,8872
2018-09-10T10:46:07.076Z,9028
2018-09-10T10:47:07.071Z,9204
2018-09-10T10:48:06.816Z,9296
2018-09-10T10:49:07.071Z,9332
2018-09-10T10:50:07.078Z,9420
2018-09-10T10:51:06.564Z,9500
2018-09-10T10:52:07.086Z,9532
2018-09-10T10:53:07.080Z,9492
2018-09-10T10:54:07.088Z,9384
2018-09-10T10:55:06.823Z,9320
2018-09-10T10:56:07.097Z,9328
2018-09-10T10:57:06.829Z,9360
2018-09-10T10:58:07.089Z,9356
2018-09-10T10:59:06.831Z,9248
2018-09-10T11:00:06.840Z,9204
2018-09-10T11:01:06.578Z,9108
2018-09-10T11:02:06.576Z,8984
2018-09-10T11:03:06.833Z,8892
2018-09-10T11:04:06.343Z,8776
2018-09-10T11:05:06.835Z,8660
2018-09-10T11:06:06.843Z,8452
2018-09-10T11:07:06.841Z,8300
2018-09-10T11:08:06.586Z,8060
2018-09-10T11:09:06.587Z,7736
2018-09-10T11:10:06.851Z,7476
2018-09-10T11:11:06.845Z,7208
2018-09-10T11:12:07.107Z,6956
2018-09-10T11:13:06.845Z,6704
2018-09-10T11:14:06.592Z,6536
2018-09-10T11:15:06.855Z,6340
2018-09-10T11:16:07.116Z,6172
2018-09-10T11:17:07.114Z,5976
2018-09-10T11:18:06.871Z,5744
2018-09-10T11:19:06.598Z,5552
2018-09-10T11:20:06.861Z,5384
2018-09-10T11:21:06.860Z,5284
2018-09-10T11:22:07.135Z,5264
2018-09-10T11:23:06.607Z,5252
2018-09-10T11:24:06.859Z,5320
2018-09-10T11:25:06.874Z,5392
2018-09-10T11:26:07.124Z,5496
2018-09-10T11:27:07.127Z,5624
2018-09-10T11:28:07.134Z,5824
2018-09-10T11:29:07.125Z,6072
2018-09-10T11:30:06.872Z,6352
2018-09-10T11:31:06.876Z,6676
2018-09-10T11:32:06.367Z,7064
2018-09-10T11:33:07.146Z,7484
2018-09-10T11:34:07.136Z,7940
2018-09-10T11:35:06.617Z,8376
2018-09-10T11:36:06.876Z,8768
2018-09-10T11:37:06.883Z,9080
2018-09-10T11:38:06.626Z,9348
2018-09-10T11:39:07.146Z,9580
2018-09-10T11:40:06.882Z,9720
2018-09-10T11:41:06.888Z,9808
2018-09-10T11:42:07.145Z,9828
2018-09-10T11:43:06.631Z,9704
2018-09-10T11:44:06.888Z,9492
2018-09-10T11:45:06.890Z,9216
2018-09-10T11:46:06.894Z,8908
2018-09-10T11:47:07.159Z,8672
2018-09-10T11:48:07.162Z,8264
2018-09-10T11:49:07.163Z,7816
2018-09-10T11:50:07.157Z,7252
2018-09-10T11:51:07.160Z,6640
2018-09-10T11:52:06.904Z,5696
2018-09-10T11:53:06.899Z,4896
2018-09-10T11:54:06.654Z,4576
2018-09-10T11:55:07.166Z,4420
2018-09-10T11:56:06.904Z,4616
2018-09-10T11:57:07.177Z,4432
2018-09-10T11:58:06.915Z,4068
2018-09-10T11:59:07.168Z,4128
2018-09-10T12:00:07.174Z,3972
2018-09-10T12:01:06.918Z,4020
2018-09-10T12:02:07.182Z,4068
2018-09-10T12:03:06.927Z,4152
2018-09-10T12:04:06.918Z,4148
2018-09-10T12:05:07.219Z,4120
2018-09-10T12:06:06.930Z,4096
2018-09-10T12:07:06.930Z,4040
2018-09-10T12:08:07.180Z,4088
2018-09-10T12:09:07.195Z,3984
2018-09-10T12:10:07.186Z,4052
2018-09-10T12:11:06.931Z,4112
2018-09-10T12:12:06.933Z,4236
2018-09-10T12:13:06.934Z,4308
2018-09-10T12:14:06.677Z,4320
2018-09-10T12:15:07.197Z,4516
2018-09-10T12:16:07.198Z,4704
2018-09-10T12:17:07.210Z,4704
2018-09-10T12:18:06.951Z,4804
2018-09-10T12:19:06.944Z,4692
2018-09-10T12:20:07.230Z,4440
2018-09-10T12:21:06.684Z,4076
2018-09-10T12:22:07.200Z,3876
2018-09-10T12:23:07.206Z,3600
2018-09-10T12:24:07.205Z,3368
2018-09-10T12:25:07.203Z,3208
2018-09-10T12:26:06.943Z,3112
2018-09-10T12:27:07.205Z,3024
2018-09-10T12:28:07.211Z,2896
2018-09-10T12:29:07.207Z,2880
2018-09-10T12:30:06.693Z,2940
2018-09-10T12:31:06.699Z,2996
2018-09-10T12:32:07.213Z,3064
2018-09-10T12:33:07.211Z,3140
2018-09-10T12:34:06.955Z,3288
2018-09-10T12:35:07.208Z,3408
2018-09-10T12:36:06.697Z,3468
2018-09-10T12:37:06.963Z,3464
2018-09-10T12:38:07.217Z,3500
2018-09-10T12:39:06.705Z,3444
2018-09-10T12:40:07.219Z,3308
2018-09-10T12:41:06.706Z,3412
2018-09-10T12:42:06.970Z,3460
2018-09-10T12:43:07.225Z,3464
2018-09-10T12:44:06.967Z,3512
2018-09-10T12:45:07.231Z,3528
2018-09-10T12:46:07.242Z,3476
2018-09-10T12:47:06.966Z,3396
2018-09-10T12:48:07.223Z,3364
2018-09-10T12:49:07.239Z,3388
2018-09-10T12:50:06.713Z,3412
2018-09-10T12:51:06.455Z,3596
2018-09-10T12:52:07.237Z,3576
2018-09-10T12:53:06.716Z,3616
2018-09-10T12:54:07.295Z,3628
2018-09-10T12:55:06.976Z,3712
2018-09-10T12:56:07.229Z,3756
2018-09-10T12:57:06.721Z,3908
2018-09-10T12:58:06.978Z,3984
2018-09-10T12:59:07.239Z,3996
2018-09-10T13:00:07.247Z,3776
2018-09-10T13:01:06.984Z,3896
2018-09-10T13:02:07.240Z,4320
2018-09-10T13:03:06.470Z,4548
2018-09-10T13:04:07.051Z,4676
2018-09-10T13:05:07.247Z,4876
2018-09-10T13:06:06.985Z,5048
2018-09-10T13:07:06.987Z,5416
2018-09-10T13:08:06.991Z,5668
2018-09-10T13:09:07.248Z,5900
2018-09-10T13:10:06.990Z,5940
2018-09-10T13:11:07.257Z,6328
2018-09-10T13:12:06.736Z,6728
2018-09-10T13:13:07.256Z,7140
2018-09-10T13:14:06.997Z,7588
2018-09-10T13:15:06.741Z,8100
2018-09-10T13:16:07.080Z,8424
2018-09-10T13:17:07.259Z,8708
2018-09-10T13:18:06.745Z,9016
2018-09-10T13:19:07.262Z,9152
2018-09-10T13:20:07.007Z,9300
2018-09-10T13:21:06.757Z,9336
2018-09-10T13:22:07.010Z,9372
2018-09-10T13:23:06.753Z,9408
2018-09-10T13:24:07.011Z,9376
2018-09-10T13:25:07.265Z,9344
2018-09-10T13:26:07.010Z,9208
2018-09-10T13:27:07.275Z,9032
2018-09-10T13:28:07.273Z,8784
2018-09-10T13:29:07.287Z,8368
2018-09-10T13:30:07.019Z,8112
2018-09-10T13:31:07.019Z,7928
2018-09-10T13:32:07.277Z,7768
2018-09-10T13:33:07.024Z,7820
2018-09-10T13:34:07.027Z,7608
2018-09-10T13:35:06.766Z,7572
2018-09-10T13:36:07.282Z,7504
2018-09-10T13:37:07.031Z,7444
2018-09-10T13:38:07.288Z,7548
2018-09-10T13:39:06.772Z,7672
2018-09-10T13:40:07.032Z,7732
2018-09-10T13:41:06.774Z,7912
2018-09-10T13:42:07.036Z,8108
2018-09-10T13:43:07.572Z,8304